createdAt,value
2023-02-01T00:04:51.282Z,3.10
2023-02-01T00:07:41.046Z,2.30
2023-02-01T00:10:49.340Z,3.20
2023-02-01T00:13:38.790Z,3.30
2023-02-01T00:17:01.060Z,4.60
2023-02-01T00:20:15.526Z,4.30
2023-02-01T00:22:42.064Z,3.90
2023-02-01T00:25:08.782Z,7.30
2023-02-01T00:27:35.375Z,5.10
2023-02-01T00:30:02.395Z,4.10
2023-02-01T00:32:28.926Z,4.40
2023-02-01T00:34:55.681Z,3.50
2023-02-01T00:37:23.437Z,4.20
2023-02-01T00:39:50.604Z,2.90
2023-02-01T00:42:17.108Z,2.10
2023-02-01T00:44:43.601Z,2.50
2023-02-01T00:47:10.072Z,2.40
2023-02-01T00:49:36.508Z,2.70
2023-02-01T00:52:03.147Z,2.80
2023-02-01T00:54:29.806Z,2.60
2023-02-01T00:56:56.451Z,2.70
2023-02-01T00:59:22.880Z,2.00
2023-02-01T01:01:49.317Z,2.40
2023-02-01T01:04:15.793Z,2.50
2023-02-01T01:06:42.299Z,2.90
2023-02-01T01:09:09.943Z,3.80
2023-02-01T01:11:38.304Z,3.10
2023-02-01T01:14:08.252Z,3.00
2023-02-01T01:16:35.986Z,3.20
2023-02-01T01:19:03.239Z,2.50
2023-02-01T01:21:30.542Z,2.40
2023-02-01T01:23:57.511Z,2.70
2023-02-01T01:26:27.277Z,3.00
2023-02-01T01:28:56.551Z,2.40
2023-02-01T01:31:23.466Z,2.20
2023-02-01T01:33:53.061Z,2.30
2023-02-01T01:36:20.390Z,2.20
2023-02-01T01:38:47.731Z,2.10
2023-02-01T01:41:17.461Z,2.60
2023-02-01T01:43:55.421Z,1.90
2023-02-01T01:46:27.063Z,2.30
2023-02-01T01:49:16.767Z,1.90
2023-02-01T01:51:49.789Z,2.00
2023-02-01T01:54:24.685Z,3.00
2023-02-01T01:57:00.292Z,3.60
2023-02-01T01:59:27.958Z,3.30
2023-02-01T02:01:55.871Z,3.30
2023-02-01T02:04:23.994Z,3.70
2023-02-01T02:07:01.880Z,3.90
2023-02-01T02:09:28.671Z,4.40
2023-02-01T02:11:55.078Z,4.10
2023-02-01T02:14:23.758Z,5.10
2023-02-01T02:17:04.457Z,5.10
2023-02-01T02:19:49.347Z,4.60
2023-02-01T02:22:40.616Z,5.20
2023-02-01T02:25:30.371Z,5.30
2023-02-01T02:28:24.559Z,4.60
2023-02-01T02:31:12.532Z,4.40
2023-02-01T02:33:52.306Z,4.30
2023-02-01T02:36:44.024Z,4.50
2023-02-01T02:39:28.173Z,4.30
2023-02-01T02:42:30.125Z,4.30
2023-02-01T02:45:30.403Z,3.60
2023-02-01T02:48:11.425Z,2.60
2023-02-01T02:51:00.712Z,2.70
2023-02-01T02:53:50.856Z,2.20
2023-02-01T02:56:41.285Z,2.30
2023-02-01T02:59:21.338Z,2.00
2023-02-01T03:02:01.609Z,2.80
2023-02-01T03:04:28.583Z,2.90
2023-02-01T03:06:55.263Z,3.20
2023-02-01T03:09:31.420Z,3.80
2023-02-01T03:12:22.143Z,3.10
2023-02-01T03:14:55.329Z,2.70
2023-02-01T03:17:31.183Z,2.00
2023-02-01T03:20:03.774Z,1.40
2023-02-01T03:22:32.043Z,2.70
2023-02-01T03:25:05.594Z,2.10
2023-02-01T03:27:40.473Z,2.00
2023-02-01T03:30:22.208Z,1.80
2023-02-01T03:32:59.488Z,1.70
2023-02-01T03:35:37.963Z,2.00
2023-02-01T03:38:23.627Z,2.10
2023-02-01T03:40:56.335Z,2.00
2023-02-01T03:43:26.708Z,1.60
2023-02-01T03:46:00.655Z,2.10
2023-02-01T03:48:29.695Z,1.90
2023-02-01T03:51:00.535Z,1.90
2023-02-01T03:53:29.746Z,1.40
2023-02-01T03:55:57.127Z,1.70
2023-02-01T03:58:23.687Z,2.30
2023-02-01T04:00:54.414Z,2.60
2023-02-01T04:03:22.129Z,3.30
2023-02-01T04:05:50.346Z,4.20
2023-02-01T04:08:17.386Z,3.90
2023-02-01T04:10:44.344Z,3.70
2023-02-01T04:13:10.861Z,3.50
2023-02-01T04:15:37.842Z,3.40
2023-02-01T04:18:04.427Z,3.70
2023-02-01T04:20:31.155Z,4.30
2023-02-01T04:22:58.029Z,6.20
2023-02-01T04:25:24.722Z,5.60
2023-02-01T04:27:51.912Z,5.80
2023-02-01T04:30:18.555Z,5.10
2023-02-01T04:32:45.213Z,6.80
2023-02-01T04:35:12.122Z,7.50
2023-02-01T04:37:38.771Z,6.50
2023-02-01T04:40:06.050Z,6.90
2023-02-01T04:42:32.652Z,7.00
2023-02-01T04:44:59.209Z,6.60
2023-02-01T04:47:26.598Z,7.40
2023-02-01T04:49:53.086Z,8.40
2023-02-01T04:52:19.652Z,9.90
2023-02-01T04:54:46.158Z,10.40
2023-02-01T04:57:13.710Z,10.00
2023-02-01T04:59:40.154Z,8.20
2023-02-01T05:02:06.684Z,8.20
2023-02-01T05:04:33.239Z,7.00
2023-02-01T05:06:59.824Z,6.10
2023-02-01T05:09:26.406Z,6.30
2023-02-01T05:12:11.793Z,5.50
2023-02-01T05:14:38.307Z,6.20
2023-02-01T05:17:04.852Z,4.90
2023-02-01T05:19:31.581Z,4.60
2023-02-01T05:21:58.075Z,2.40
2023-02-01T05:24:24.669Z,2.80
2023-02-01T05:26:51.231Z,4.60
2023-02-01T05:29:19.572Z,14.50
2023-02-01T05:31:47.447Z,12.40
2023-02-01T05:34:15.264Z,10.00
2023-02-01T05:36:42.358Z,8.10
2023-02-01T05:39:08.854Z,7.40
2023-02-01T05:41:35.519Z,6.30
2023-02-01T05:44:02.990Z,6.40
2023-02-01T05:46:29.685Z,8.40
2023-02-01T05:48:56.325Z,9.30
2023-02-01T05:51:29.461Z,6.00
2023-02-01T05:53:56.566Z,6.40
2023-02-01T05:56:26.741Z,6.60
2023-02-01T05:58:54.388Z,7.90
2023-02-01T06:01:21.150Z,6.60
2023-02-01T06:03:53.541Z,5.30
2023-02-01T06:06:20.272Z,5.80
2023-02-01T06:08:46.976Z,8.20
2023-02-01T06:11:30.658Z,8.00
2023-02-01T06:14:36.067Z,8.10
2023-02-01T06:18:05.167Z,6.90
2023-02-01T06:21:41.109Z,8.20
2023-02-01T06:25:26.365Z,8.40
2023-02-01T06:29:03.072Z,23.00
2023-02-01T06:32:43.111Z,11.10
2023-02-01T06:36:39.183Z,10.40
2023-02-01T06:40:29.069Z,11.40
2023-02-01T06:44:25.993Z,11.40
2023-02-01T06:48:10.233Z,8.50
2023-02-01T06:51:47.193Z,8.90
2023-02-01T06:55:41.119Z,8.30
2023-02-01T06:59:22.226Z,7.90
2023-02-01T07:06:29.611Z,6.90
2023-02-01T07:10:12.007Z,7.80
2023-02-01T07:13:59.099Z,7.70
2023-02-01T07:17:49.050Z,7.10
2023-02-01T07:24:42.272Z,7.00
2023-02-01T07:28:23.108Z,6.60
2023-02-01T07:31:56.314Z,6.50
2023-02-01T07:35:21.041Z,8.20
2023-02-01T07:39:00.181Z,8.90
2023-02-01T07:42:14.610Z,7.70
2023-02-01T07:44:44.227Z,5.10
2023-02-01T07:47:10.784Z,9.60
2023-02-01T07:49:39.779Z,10.70
2023-02-01T07:52:13.668Z,9.60
2023-02-01T07:54:46.467Z,10.30
2023-02-01T07:58:22.693Z,11.20
2023-02-01T08:01:23.264Z,10.70
2023-02-01T08:03:56.762Z,9.10
2023-02-01T08:06:44.281Z,8.60
2023-02-01T08:09:14.264Z,9.80
2023-02-01T08:11:52.541Z,7.40
2023-02-01T08:14:24.255Z,7.90
2023-02-01T08:16:53.934Z,9.30
2023-02-01T08:19:21.012Z,7.10
2023-02-01T08:21:53.076Z,6.70
2023-02-01T08:24:19.668Z,6.30
2023-02-01T08:26:46.242Z,4.80
2023-02-01T08:29:14.212Z,5.00
2023-02-01T08:31:47.151Z,4.70
2023-02-01T08:34:19.282Z,5.40
2023-02-01T08:36:46.383Z,4.40
2023-02-01T08:39:21.726Z,5.20
2023-02-01T08:42:08.522Z,5.30
2023-02-01T08:44:40.850Z,5.90
2023-02-01T08:47:07.522Z,5.70
2023-02-01T08:49:47.336Z,5.60
2023-02-01T08:52:17.582Z,5.70
2023-02-01T08:54:49.858Z,5.30
2023-02-01T08:57:21.956Z,4.70
2023-02-01T08:59:51.367Z,4.80
2023-02-01T09:03:33.722Z,5.70
2023-02-01T09:06:13.127Z,5.60
2023-02-01T09:08:50.626Z,5.40
2023-02-01T09:11:41.461Z,6.40
2023-02-01T09:14:10.609Z,6.40
2023-02-01T09:16:44.510Z,6.10
2023-02-01T09:19:27.182Z,5.50
2023-02-01T09:21:58.386Z,5.50
2023-02-01T09:24:46.573Z,5.60
2023-02-01T09:27:23.144Z,6.40
2023-02-01T09:29:53.148Z,5.60
2023-02-01T09:32:52.367Z,5.50
2023-02-01T09:38:10.335Z,5.30
2023-02-01T09:40:55.931Z,4.70
2023-02-01T09:43:44.511Z,5.50
2023-02-01T09:46:29.254Z,5.40
2023-02-01T10:19:38.614Z,7.40
2023-02-01T10:24:43.063Z,8.90
2023-02-01T10:29:58.484Z,7.90
2023-02-01T10:34:23.826Z,8.70
2023-02-01T11:08:29.969Z,3.20
2023-02-01T11:34:10.415Z,2.20
2023-02-01T11:37:38.754Z,2.30
2023-02-01T11:52:13.096Z,1.60
2023-02-01T11:55:43.810Z,1.30
2023-02-01T12:31:00.199Z,1.90
2023-02-01T12:42:22.019Z,2.90
2023-02-01T12:46:17.440Z,2.80
2023-02-01T12:56:21.091Z,2.90
2023-02-01T12:58:37.287Z,2.40
2023-02-01T13:14:24.497Z,3.00
2023-02-01T13:35:55.451Z,4.20
2023-02-01T13:38:56.119Z,5.50
2023-02-01T13:41:40.215Z,3.80
2023-02-01T13:44:29.875Z,3.30
2023-02-01T13:47:03.893Z,4.20
2023-02-01T13:49:54.370Z,3.60
2023-02-01T13:56:33.185Z,3.20
2023-02-01T13:57:22.610Z,3.70
2023-02-01T14:00:48.827Z,4.00
2023-02-01T14:03:43.699Z,3.50
2023-02-01T14:06:38.332Z,3.70
2023-02-01T14:09:21.708Z,4.00
2023-02-01T14:12:30.981Z,4.80
2023-02-01T14:15:25.035Z,5.00
2023-02-01T14:17:54.377Z,5.20
2023-02-01T14:20:47.972Z,4.20
2023-02-01T14:23:22.479Z,4.60
2023-02-01T14:28:50.602Z,3.20
2023-02-01T14:31:43.239Z,3.80
2023-02-01T14:34:31.605Z,6.10
2023-02-01T14:37:25.505Z,7.50
2023-02-01T14:40:03.265Z,8.10
2023-02-01T14:42:47.892Z,7.40
2023-02-01T14:45:55.661Z,7.50
2023-02-01T14:48:45.602Z,7.70
2023-02-01T14:51:17.355Z,8.00
2023-02-01T14:53:47.723Z,7.90
2023-02-01T14:56:21.410Z,12.90
2023-02-01T14:58:59.314Z,9.00
2023-02-01T15:01:32.954Z,9.50
2023-02-01T15:04:19.418Z,8.90
2023-02-01T15:08:01.890Z,8.50
2023-02-01T15:10:26.673Z,9.20
2023-02-01T15:12:57.603Z,8.50
2023-02-01T15:15:35.552Z,9.30
2023-02-01T15:18:06.768Z,9.80
2023-02-01T15:20:47.042Z,9.20
2023-02-01T15:23:31.206Z,9.00
2023-02-01T15:26:01.363Z,8.20
2023-02-01T15:28:32.000Z,9.90
2023-02-01T15:31:04.488Z,11.00
2023-02-01T15:33:33.803Z,11.10
2023-02-01T15:36:19.446Z,11.60
2023-02-01T15:38:47.562Z,11.20
2023-02-01T15:41:22.197Z,11.70
2023-02-01T15:44:10.225Z,10.10
2023-02-01T15:46:43.784Z,10.00
2023-02-01T15:49:26.010Z,8.80
2023-02-01T15:51:56.466Z,8.70
2023-02-01T15:54:32.118Z,7.80
2023-02-01T15:57:03.647Z,7.50
2023-02-01T15:59:42.285Z,7.60
2023-02-01T16:02:35.534Z,7.40
2023-02-01T16:05:05.362Z,7.50
2023-02-01T16:07:35.854Z,7.30
2023-02-01T16:10:26.048Z,7.40
2023-02-01T16:12:58.767Z,8.00
2023-02-01T16:15:30.719Z,8.10
2023-02-01T16:17:58.671Z,8.80
2023-02-01T16:20:26.567Z,8.80
2023-02-01T16:22:54.498Z,8.50
2023-02-01T16:25:23.297Z,9.00
2023-02-01T16:27:51.694Z,11.90
2023-02-01T16:30:24.757Z,11.80
2023-02-01T16:32:56.094Z,12.00
2023-02-01T16:35:27.279Z,11.40
2023-02-01T16:38:01.611Z,11.50
2023-02-01T16:40:29.753Z,11.90
2023-02-01T16:42:57.664Z,9.70
2023-02-01T16:45:25.952Z,10.40
2023-02-01T16:47:57.121Z,10.20
2023-02-01T16:50:26.845Z,9.20
2023-02-01T16:52:54.978Z,8.60
2023-02-01T16:55:23.696Z,8.60
2023-02-01T16:57:52.563Z,8.70
2023-02-01T17:00:25.792Z,7.60
2023-02-01T17:02:54.532Z,8.20
2023-02-01T17:05:23.476Z,8.90
2023-02-01T17:08:18.708Z,7.80
2023-02-01T17:11:39.061Z,9.30
2023-02-01T17:14:54.661Z,8.90
2023-02-01T17:18:17.780Z,8.40
2023-02-01T17:22:13.005Z,8.70
2023-02-01T17:25:16.883Z,8.10
2023-02-01T17:28:28.410Z,8.90
2023-02-01T17:31:22.500Z,10.20
2023-02-01T17:33:52.402Z,27.60
2023-02-01T17:36:20.273Z,22.00
2023-02-01T17:38:59.898Z,17.50
2023-02-01T17:41:34.372Z,16.20
2023-02-01T17:44:27.816Z,12.60
2023-02-01T17:47:18.037Z,14.40
2023-02-01T17:49:57.148Z,14.00
2023-02-01T17:53:07.692Z,12.40
2023-02-01T17:55:43.216Z,8.40
2023-02-01T17:58:54.276Z,5.10
2023-02-01T18:02:26.178Z,2.70
2023-02-01T18:06:37.674Z,2.70
2023-02-01T18:14:45.526Z,8.40
2023-02-01T18:22:55.558Z,6.40
2023-02-01T18:26:33.702Z,5.10
2023-02-01T18:29:27.318Z,4.00
2023-02-01T18:36:53.795Z,2.70
2023-02-01T18:39:22.688Z,2.10
2023-02-01T18:42:21.083Z,2.70
2023-02-01T18:45:40.206Z,1.90
2023-02-01T18:48:25.413Z,2.10
2023-02-01T18:52:03.460Z,1.70
2023-02-01T18:55:37.917Z,2.30
2023-02-01T18:59:00.936Z,2.30
2023-02-01T19:02:31.122Z,2.00
2023-02-01T19:06:15.225Z,2.00
2023-02-01T19:10:23.639Z,1.60
2023-02-01T19:13:51.984Z,1.10
2023-02-01T19:17:00.430Z,1.40
2023-02-01T19:19:30.250Z,3.00
2023-02-01T19:22:27.622Z,1.70
2023-02-01T19:25:56.593Z,2.80
2023-02-01T19:29:27.611Z,3.50
2023-02-01T19:33:02.632Z,2.60
2023-02-01T19:36:19.633Z,2.00
2023-02-01T19:40:18.630Z,1.60
2023-02-01T19:43:51.612Z,1.70
2023-02-01T19:50:38.649Z,1.60
2023-02-01T19:54:20.670Z,2.40
2023-02-01T19:57:54.641Z,2.30
2023-02-01T20:04:30.807Z,3.50
2023-02-01T20:07:42.717Z,2.10
2023-02-01T20:10:54.744Z,2.50
2023-02-01T20:14:28.754Z,1.90
2023-02-01T20:17:40.773Z,2.60
2023-02-01T20:20:53.697Z,2.70
2023-02-01T20:24:06.844Z,2.90
2023-02-01T20:27:44.553Z,3.70
2023-02-01T20:31:17.645Z,2.80
2023-02-01T20:34:44.173Z,3.00
2023-02-01T20:38:32.899Z,3.00
2023-02-01T20:42:35.931Z,2.90
2023-02-01T20:49:44.694Z,6.10
2023-02-01T20:53:26.931Z,3.00
2023-02-01T20:57:18.751Z,2.70
2023-02-01T21:01:10.670Z,2.90
2023-02-01T21:04:32.940Z,3.40
2023-02-01T21:07:46.584Z,5.00
2023-02-01T21:11:27.764Z,4.70
2023-02-01T21:18:40.637Z,4.20
2023-02-01T21:22:06.655Z,3.80
2023-02-01T21:25:59.650Z,3.90
2023-02-01T21:29:31.632Z,5.60
2023-02-01T21:36:51.651Z,4.10
2023-02-01T21:40:23.671Z,5.60
2023-02-01T21:44:19.650Z,5.40
2023-02-01T21:47:48.334Z,4.00
2023-02-01T21:51:42.652Z,3.40
2023-02-01T21:55:45.933Z,3.00
2023-02-01T21:59:16.726Z,3.10
2023-02-01T22:02:55.680Z,3.10
2023-02-01T22:06:16.631Z,2.60
2023-02-01T22:09:56.578Z,3.40
2023-02-01T22:13:30.765Z,3.40
2023-02-01T22:16:50.997Z,3.50
2023-02-01T22:24:23.681Z,3.10
2023-02-01T22:28:30.404Z,3.20
2023-02-01T22:31:46.871Z,2.70
2023-02-01T22:39:00.652Z,2.60
2023-02-01T22:42:29.559Z,2.60
2023-02-01T22:45:57.702Z,2.50
2023-02-01T22:49:31.615Z,2.50
2023-02-01T22:53:00.762Z,2.70
2023-02-01T22:56:32.649Z,3.00
2023-02-01T23:00:08.610Z,3.20
2023-02-01T23:03:45.719Z,3.50
2023-02-01T23:07:22.554Z,3.70
2023-02-01T23:10:57.604Z,3.50
2023-02-01T23:14:24.918Z,4.10
2023-02-01T23:17:59.614Z,3.80
2023-02-01T23:25:04.543Z,4.20
2023-02-01T23:28:39.669Z,3.50
2023-02-01T23:32:12.565Z,3.50
2023-02-01T23:35:47.619Z,3.30
2023-02-01T23:39:08.676Z,3.70
2023-02-01T23:42:42.527Z,3.20
2023-02-01T23:46:12.710Z,3.00
2023-02-01T23:49:49.630Z,4.10
2023-02-01T23:53:18.603Z,2.60
